Archival Weather

Randolph Afb

Universal City, Texas (KRND)

Report from: Monday, September 26, 2022 10:55 PM CDT
Current time: Saturday, February 4, 2023 10:58 PM CST

Current weather
Weather history
Weather forecast

Temperature25.9°C (78.6°F)
Dew point4.9°C (40.8°F)
Winds 9 kts (4.6 m/s, 10.4 mph) North-Northeast (30°)
Visibility10 mi. (16.1 km)
Clouds Sky clear
Altimeter30.07 in.Hg (1018 mB)
Relative humidity26 %
Density altitude1,221 ft. (372 m)
Sea-level pressure101.7 kPa (1017 mB, 30.04 in.Hg)
Remarks Fully automated report
Automated weather observing station with precipitation discriminator
Flight conditions Visual Meteorological Conditions
Raw dataKRND 270355Z AUTO 03009KT 10SM CLR 26/05 A3007 RMK AO2 SLP174 T02590049
An unhandled exception has occurred. See browser dev tools for details. Reload 🗙